Time;durP1;ratioP1;P1;durP2;ratioP2;P2;SDS_P1;SDS_P2;PMS_P1;PMS_P2;Temp;Humidity;BMP_temperature;BMP_pressure;BME280_temperature;BME280_humidity;BME280_pressure;Samples;Min_cycle;Max_cycle;Signal;HPM_P1;HPM_P2
2022/05/18 00:01:20;;;;;;;3.37;1.85;;;;;;;13.09;68.89;101032.48;1857155;77;21042;-61
2022/05/18 00:03:48;;;;;;;3.40;1.72;;;;;;;13.12;68.80;101033.21;1857123;77;21608;-61
2022/05/18 00:06:17;;;;;;;2.05;1.75;;;;;;;13.18;68.62;101020.65;1859265;76;21115;-61
2022/05/18 00:08:45;;;;;;;3.87;1.98;;;;;;;13.22;68.46;101023.54;1857225;76;21038;-61
2022/05/18 00:11:17;;;;;;;15.60;2.17;;;;;;;13.25;68.31;101009.72;1857138;77;21097;-61
2022/05/18 00:13:48;;;;;;;5.15;2.47;;;;;;;13.28;68.13;101009.59;1870957;76;21039;-61
2022/05/18 00:16:18;;;;;;;9.50;1.80;;;;;;;13.29;68.06;101010.44;1889039;76;21034;-61
2022/05/18 00:18:47;;;;;;;4.20;2.27;;;;;;;13.28;68.23;101011.38;1889078;76;21119;-61
2022/05/18 00:21:16;;;;;;;3.27;2.12;;;;;;;13.27;68.37;101007.86;1889293;76;21046;-61
2022/05/18 00:23:46;;;;;;;6.60;1.85;;;;;;;13.27;68.23;101009.65;1881663;76;21563;-62
2022/05/18 00:26:15;;;;;;;3.33;2.15;;;;;;;13.23;68.01;101001.47;1870575;77;21067;-62
2022/05/18 00:28:44;;;;;;;3.47;1.77;;;;;;;13.22;68.05;101001.91;1870609;77;21545;-62
2022/05/18 00:31:18;;;;;;;4.35;1.70;;;;;;;13.22;67.91;101001.91;1870797;76;21043;-62
2022/05/18 00:33:48;;;;;;;2.52;1.57;;;;;;;13.26;67.63;100997.34;1868258;77;21035;-64
2022/05/18 00:36:17;;;;;;;4.17;2.15;;;;;;;13.26;67.41;100982.80;1870565;77;21219;-62
2022/05/18 00:38:46;;;;;;;9.85;1.98;;;;;;;13.24;67.22;100985.54;1868290;77;21481;-62
2022/05/18 00:41:19;;;;;;;3.70;1.55;;;;;;;13.24;67.07;100980.70;1870681;77;21039;-62
2022/05/18 00:43:46;;;;;;;2.80;1.98;;;;;;;13.24;67.00;100985.98;1868073;76;21121;-62
2022/05/18 00:46:15;;;;;;;4.33;2.08;;;;;;;13.21;66.97;100987.00;1870603;77;21438;-62
2022/05/18 00:48:44;;;;;;;5.30;1.60;;;;;;;13.20;67.08;100989.23;1870488;77;21019;-63
2022/05/18 00:51:18;;;;;;;4.65;3.45;;;;;;;13.21;67.29;100986.14;1870572;77;21062;-63
2022/05/18 00:53:50;;;;;;;2.33;1.90;;;;;;;13.22;67.60;100990.02;1868417;77;21035;-63
2022/05/18 00:56:22;;;;;;;10.45;2.42;;;;;;;13.24;67.64;100974.08;1869414;76;21041;-63
2022/05/18 00:59:02;;;;;;;2.83;2.10;;;;;;;13.28;67.71;100977.00;1870622;77;21055;-64
2022/05/18 01:01:31;;;;;;;3.95;1.95;;;;;;;13.28;67.59;100970.39;1870286;76;21056;-63
2022/05/18 01:04:02;;;;;;;2.12;1.57;;;;;;;13.35;68.02;100972.30;1868288;77;21450;-63
2022/05/18 01:07:03;;;;;;;5.75;1.62;;;;;;;13.45;67.81;100965.19;1870562;77;21121;-64
2022/05/18 01:09:35;;;;;;;2.58;2.17;;;;;;;13.57;67.55;100961.09;1870456;77;21534;-60
2022/05/18 01:12:06;;;;;;;4.37;1.77;;;;;;;13.69;67.24;100957.86;1870800;77;21438;-60
2022/05/18 01:14:37;;;;;;;3.10;2.00;;;;;;;13.80;67.06;100956.02;1868307;77;21043;-60
2022/05/18 01:17:07;;;;;;;2.72;1.95;;;;;;;13.89;66.92;100951.59;1870694;77;21039;-60
2022/05/18 01:19:44;;;;;;;1.92;1.42;;;;;;;13.97;66.80;100937.12;1870771;77;21498;-59
2022/05/18 01:22:29;;;;;;;2.77;2.05;;;;;;;14.01;66.64;100941.32;1870518;77;21105;-59
2022/05/18 01:25:04;;;;;;;1.75;1.65;;;;;;;14.04;66.67;100934.56;1877043;75;21552;-59
2022/05/18 01:27:33;;;;;;;6.25;2.02;;;;;;;14.04;66.62;100937.20;1888199;76;21497;-60
2022/05/18 01:30:02;;;;;;;6.15;2.00;;;;;;;14.03;66.66;100942.09;1888931;76;21077;-59
2022/05/18 01:32:36;;;;;;;2.95;1.85;;;;;;;14.00;66.83;100932.97;1888847;76;21111;-60
2022/05/18 01:35:05;;;;;;;5.33;1.72;;;;;;;14.01;66.97;100929.41;1885336;76;21066;-59
2022/05/18 01:37:34;;;;;;;1.52;1.30;;;;;;;14.00;67.11;100931.65;1857006;77;21107;-61
2022/05/18 01:40:05;;;;;;;4.85;3.02;;;;;;;14.01;67.32;100928.08;1856985;77;21505;-60
2022/05/18 01:42:43;;;;;;;4.95;2.55;;;;;;;13.99;67.79;100922.86;1856979;77;21513;-59
2022/05/18 01:45:12;;;;;;;3.60;2.00;;;;;;;14.00;68.16;100921.94;1856912;77;21034;-61
2022/05/18 01:47:42;;;;;;;4.05;2.10;;;;;;;14.00;68.19;100931.65;1859100;76;21074;-61
2022/05/18 01:50:13;;;;;;;5.62;2.08;;;;;;;14.00;68.19;100942.23;1857003;77;21002;-61
2022/05/18 01:52:42;;;;;;;5.55;1.70;;;;;;;14.00;68.32;100921.06;1858873;76;21058;-61
2022/05/18 01:55:10;;;;;;;2.85;1.77;;;;;;;14.00;68.28;100935.17;1888887;76;21041;-62
2022/05/18 01:57:39;;;;;;;7.22;1.60;;;;;;;13.97;68.21;100929.17;1888903;76;21171;-62
2022/05/18 02:00:09;;;;;;;4.85;1.72;;;;;;;13.95;68.35;100934.55;1888998;76;21026;-61
2022/05/18 02:02:40;;;;;;;3.12;2.12;;;;;;;13.92;68.25;100939.13;1889059;75;21547;-61
2022/05/18 02:05:10;;;;;;;3.37;2.15;;;;;;;13.90;68.25;100925.97;1886803;76;21449;-61
2022/05/18 02:07:39;;;;;;;13.78;2.00;;;;;;;13.89;68.11;100930.41;1886633;76;21475;-62
2022/05/18 02:10:08;;;;;;;3.08;2.00;;;;;;;13.88;68.01;100935.78;1888985;76;21090;-61
2022/05/18 02:12:38;;;;;;;10.13;2.37;;;;;;;13.85;68.02;100930.62;1889009;76;21034;-62
2022/05/18 02:15:08;;;;;;;4.47;1.70;;;;;;;13.83;67.93;100930.73;1886692;76;21550;-62
2022/05/18 02:17:38;;;;;;;5.55;1.80;;;;;;;13.80;67.85;100933.52;1889144;76;21035;-62
2022/05/18 02:20:08;;;;;;;2.85;2.00;;;;;;;13.78;67.93;100919.51;1888973;76;21039;-63
2022/05/18 02:22:37;;;;;;;3.85;1.37;;;;;;;13.78;67.86;100919.51;1888992;76;21781;-62
2022/05/18 02:25:07;;;;;;;6.75;2.12;;;;;;;13.78;67.71;100911.56;1890938;75;21578;-62
2022/05/18 02:27:36;;;;;;;4.05;2.08;;;;;;;13.78;67.63;100914.22;1877292;75;21131;-62
2022/05/18 02:30:07;;;;;;;3.60;2.42;;;;;;;13.80;67.62;100916.31;1866063;77;21050;-62
2022/05/18 02:32:36;;;;;;;2.65;1.60;;;;;;;13.84;67.58;100917.87;1866076;77;21108;-63
2022/05/18 02:35:05;;;;;;;6.00;1.67;;;;;;;13.89;67.45;100909.23;1866022;77;21112;-62
2022/05/18 02:37:35;;;;;;;4.47;1.60;;;;;;;13.92;67.35;100910.02;1866060;77;21120;-63
2022/05/18 02:40:05;;;;;;;7.75;2.33;;;;;;;13.98;67.28;100908.37;1868184;75;21097;-64
2022/05/18 02:42:34;;;;;;;3.50;1.50;;;;;;;13.99;67.11;100906.12;1866179;77;21159;-62
2022/05/18 02:45:06;;;;;;;1.80;1.40;;;;;;;14.00;66.84;100913.12;1865975;77;21092;-62
2022/05/18 02:47:35;;;;;;;13.32;1.98;;;;;;;14.03;66.62;100910.33;1866098;77;21132;-62
2022/05/18 02:50:04;;;;;;;2.62;1.30;;;;;;;14.17;66.33;100906.98;1866085;77;21159;-62
2022/05/18 02:52:34;;;;;;;1.27;0.95;;;;;;;14.41;66.36;100908.35;1885957;75;21141;-62
2022/05/18 02:57:50;;;;;;;2.95;1.72;;;;;;;14.71;64.56;100920.09;1897912;75;21124;-62
2022/05/18 03:00:19;;;;;;;3.50;1.57;;;;;;;15.02;63.62;100909.53;1868183;75;21132;-61
2022/05/18 03:02:48;;;;;;;5.53;1.47;;;;;;;15.17;62.99;100914.94;1866192;77;21120;-61
2022/05/18 03:05:17;;;;;;;2.60;1.20;;;;;;;15.37;62.97;100904.06;1866059;77;21081;-61
2022/05/18 03:07:46;;;;;;;6.37;1.50;;;;;;;15.61;61.16;100906.27;1866166;77;21473;-62
2022/05/18 03:10:18;;;;;;;1.10;1.00;;;;;;;15.61;60.82;100895.66;1880285;75;21077;-63
2022/05/18 03:12:47;;;;;;;3.90;1.17;;;;;;;15.58;61.04;100879.89;1898908;75;21035;-62
2022/05/18 03:15:15;;;;;;;1.77;1.00;;;;;;;15.53;60.92;100902.73;1898636;75;21034;-62
2022/05/18 03:17:44;;;;;;;7.80;1.80;;;;;;;15.42;60.99;100903.34;1898850;75;21043;-62
2022/05/18 03:23:33;;;;;;;1.50;1.20;;;;;;;15.31;60.83;100903.09;1896031;75;21085;-62
2022/05/18 03:25:30;;;;;;;1.22;0.95;;;;;;;15.25;61.06;100891.48;1897902;75;21046;-62
2022/05/18 03:27:59;;;;;;;3.62;1.60;;;;;;;15.25;61.13;100898.11;1897977;75;21433;-62
2022/05/18 03:30:28;;;;;;;1.92;1.30;;;;;;;15.36;60.87;100891.76;1895645;75;21100;-62
2022/05/18 03:32:56;;;;;;;3.05;1.75;;;;;;;15.54;61.01;100883.67;1898008;75;21054;-61
2022/05/18 03:35:25;;;;;;;1.55;1.00;;;;;;;15.70;60.97;100887.16;1897867;75;21014;-62
2022/05/18 03:37:53;;;;;;;1.55;0.93;;;;;;;15.74;60.29;100875.92;1897992;75;21171;-62
2022/05/18 03:40:22;;;;;;;3.47;1.22;;;;;;;15.73;59.96;100881.68;1897209;75;21042;-63
2022/05/18 03:42:51;;;;;;;3.77;1.57;;;;;;;15.75;59.79;100874.51;1897440;75;21010;-62
2022/05/18 03:45:20;;;;;;;6.37;1.80;;;;;;;15.88;59.92;100874.64;1897977;75;21124;-62
2022/05/18 03:47:48;;;;;;;4.72;1.32;;;;;;;16.08;60.18;100864.13;1897896;75;21054;-62
2022/05/18 03:50:17;;;;;;;4.65;1.40;;;;;;;16.18;59.94;100858.66;1898058;75;21058;-61
2022/05/18 03:52:46;;;;;;;3.08;1.30;;;;;;;16.31;59.79;100849.95;1895620;75;21042;-62
2022/05/18 03:55:15;;;;;;;3.90;1.80;;;;;;;16.38;59.22;100853.95;1898055;75;21104;-62
2022/05/18 03:57:44;;;;;;;2.37;1.47;;;;;;;16.41;59.07;100847.09;1898094;75;21089;-62
2022/05/18 04:00:14;;;;;;;3.42;1.35;;;;;;;16.36;59.26;100846.55;1897968;75;21042;-65
2022/05/18 04:02:43;;;;;;;5.58;1.70;;;;;;;16.43;59.28;100849.17;1895609;75;21038;-64
2022/05/18 04:05:12;;;;;;;3.85;1.12;;;;;;;16.82;59.00;100842.34;1898046;75;21491;-64
2022/05/18 04:07:41;;;;;;;3.95;1.50;;;;;;;17.03;58.46;100835.29;1897941;75;21492;-63
2022/05/18 04:10:11;;;;;;;3.87;1.47;;;;;;;16.98;57.55;100824.94;1876311;75;21037;-64
2022/05/18 04:12:39;;;;;;;4.05;1.52;;;;;;;16.93;57.36;100838.55;1866005;77;21112;-66
2022/05/18 04:15:10;;;;;;;5.30;1.45;;;;;;;17.04;56.72;100825.88;1866205;77;21144;-64
2022/05/18 04:17:38;;;;;;;3.67;1.77;;;;;;;17.32;55.79;100834.23;1866037;77;21045;-64
2022/05/18 04:20:08;;;;;;;5.85;1.27;;;;;;;17.26;55.50;100838.61;1868167;75;21115;-62
2022/05/18 04:22:37;;;;;;;4.08;1.65;;;;;;;17.22;55.43;100839.77;1865989;77;21074;-62
2022/05/18 04:25:07;;;;;;;3.75;1.32;;;;;;;17.36;54.74;100839.73;1866013;77;21030;-62
2022/05/18 04:27:36;;;;;;;1.57;1.17;;;;;;;17.41;54.45;100835.91;1849795;76;21087;-62
2022/05/18 04:30:07;;;;;;;4.03;2.10;;;;;;;17.57;54.37;100836.59;1841287;77;21076;-62
2022/05/18 04:32:41;;;;;;;7.58;1.65;;;;;;;17.59;54.36;100823.19;1839264;78;21117;-62
2022/05/18 04:35:11;;;;;;;3.55;1.35;;;;;;;17.49;54.45;100828.28;1839241;78;21148;-62
2022/05/18 04:37:40;;;;;;;1.70;1.20;;;;;;;17.40;54.42;100838.20;1839333;78;21019;-61
2022/05/18 04:40:11;;;;;;;1.75;1.35;;;;;;;17.31;54.16;100832.52;1839802;77;21470;-61
2022/05/18 04:42:40;;;;;;;6.60;1.20;;;;;;;17.21;53.96;100819.45;1839706;77;21109;-61
2022/05/18 04:45:12;;;;;;;2.15;1.30;;;;;;;17.12;54.02;100836.02;1839270;78;21055;-61
2022/05/18 04:47:41;;;;;;;1.72;1.20;;;;;;;17.04;54.21;100843.17;1839233;78;21559;-61
2022/05/18 04:50:11;;;;;;;3.22;1.70;;;;;;;17.00;54.49;100842.12;1839261;78;21454;-61
2022/05/18 04:52:40;;;;;;;2.17;1.72;;;;;;;16.92;54.59;100828.84;1841270;77;21094;-61
2022/05/18 04:55:09;;;;;;;2.20;1.42;;;;;;;16.90;54.72;100824.10;1839253;78;21215;-61
2022/05/18 04:57:38;;;;;;;4.42;1.67;;;;;;;16.91;54.77;100813.86;1839346;78;21050;-61
2022/05/18 05:00:10;;;;;;;4.58;1.60;;;;;;;16.91;54.52;100829.81;1839234;78;21055;-61
2022/05/18 05:02:40;;;;;;;1.90;1.70;;;;;;;16.95;54.56;100811.37;1856781;77;21458;-61
2022/05/18 05:05:12;;;;;;;1.90;1.35;;;;;;;17.00;54.66;100824.35;1870487;76;21043;-61
2022/05/18 05:07:40;;;;;;;2.40;1.75;;;;;;;17.03;54.62;100819.33;1870539;76;21043;-61
2022/05/18 05:10:10;;;;;;;4.28;1.60;;;;;;;17.11;54.68;100821.84;1870544;77;21046;-61
2022/05/18 05:12:39;;;;;;;6.22;1.80;;;;;;;17.19;54.41;100824.03;1868345;77;21121;-61
2022/05/18 05:15:09;;;;;;;2.05;1.15;;;;;;;17.26;54.15;100825.31;1870538;77;21047;-61
2022/05/18 05:17:38;;;;;;;6.92;1.37;;;;;;;17.36;54.11;100830.90;1870461;77;21067;-61
2022/05/18 05:20:08;;;;;;;4.53;1.57;;;;;;;17.51;53.92;100825.88;1852966;77;21128;-61
2022/05/18 05:22:36;;;;;;;1.17;1.00;;;;;;;17.57;53.85;100825.94;1839356;78;21059;-62
2022/05/18 05:25:11;;;;;;;1.25;1.07;;;;;;;17.60;53.38;100823.08;1839257;78;21200;-61
2022/05/18 05:27:36;;;;;;;8.48;2.08;;;;;;;17.54;53.26;100811.04;1843728;77;21082;-62
2022/05/18 05:30:08;;;;;;;3.20;1.50;;;;;;;17.58;53.49;100805.03;1858970;76;21161;-62
2022/05/18 05:32:37;;;;;;;8.38;1.80;;;;;;;17.65;53.67;100802.33;1856987;77;21117;-62
2022/05/18 05:35:07;;;;;;;3.25;1.75;;;;;;;17.72;53.80;100788.11;1856967;77;21575;-61
2022/05/18 05:37:36;;;;;;;3.35;1.47;;;;;;;17.68;54.01;100803.44;1857119;77;21117;-61
2022/05/18 05:40:06;;;;;;;4.03;1.57;;;;;;;17.71;54.58;100786.41;1857023;77;21050;-63
2022/05/18 05:42:35;;;;;;;2.17;1.15;;;;;;;17.94;54.65;100784.85;1856989;77;21094;-62
2022/05/18 05:45:04;;;;;;;3.83;1.55;;;;;;;18.12;54.57;100773.40;1872491;76;21039;-62
2022/05/18 05:47:33;;;;;;;3.62;1.70;;;;;;;18.03;54.25;100779.37;1888992;76;21108;-61
2022/05/18 05:50:03;;;;;;;7.37;1.80;;;;;;;18.03;54.42;100788.20;1888923;76;21038;-61
2022/05/18 05:52:32;;;;;;;4.78;1.10;;;;;;;17.99;54.10;100788.55;1867363;76;21115;-61
2022/05/18 05:55:00;;;;;;;3.00;1.55;;;;;;;17.93;54.24;100800.48;1856869;77;21149;-62
2022/05/18 05:57:29;;;;;;;1.65;1.32;;;;;;;17.94;54.53;100784.85;1856967;77;21105;-61
2022/05/18 05:59:59;;;;;;;1.70;1.20;;;;;;;18.09;54.58;100786.47;1856987;77;21078;-61
2022/05/18 06:02:28;;;;;;;1.92;1.30;;;;;;;18.40;54.10;100774.95;1859107;76;21116;-61
2022/05/18 06:04:57;;;;;;;2.80;1.42;;;;;;;18.76;53.63;100774.61;1857083;77;21042;-61
2022/05/18 06:07:26;;;;;;;1.87;1.20;;;;;;;19.20;53.02;100765.16;1856760;77;21220;-60
2022/05/18 06:09:54;;;;;;;3.27;1.30;;;;;;;19.40;51.92;100765.47;1867677;76;21155;-61
2022/05/18 06:12:25;;;;;;;3.80;1.45;;;;;;;19.55;51.14;100770.99;1858813;76;21230;-61
2022/05/18 06:14:54;;;;;;;4.00;1.52;;;;;;;19.68;50.24;100778.42;1875119;76;21535;-62
2022/05/18 06:17:23;;;;;;;3.12;1.25;;;;;;;20.00;48.93;100755.06;1888914;76;21027;-62
2022/05/18 06:19:51;;;;;;;6.65;1.35;;;;;;;20.08;48.68;100757.12;1888842;76;21042;-63
2022/05/18 06:22:20;;;;;;;3.33;1.35;;;;;;;19.92;48.84;100764.64;1888823;76;21098;-62
2022/05/18 06:24:51;;;;;;;3.67;1.70;;;;;;;19.66;49.21;100754.98;1888899;76;21030;-61
2022/05/18 06:27:20;;;;;;;2.98;1.45;;;;;;;19.85;49.12;100742.91;1883999;76;21043;-62
2022/05/18 06:29:49;;;;;;;5.47;1.50;;;;;;;20.14;47.99;100757.12;1896974;75;21577;-62
2022/05/18 06:32:19;;;;;;;4.47;1.45;;;;;;;20.33;47.68;100739.99;1897839;75;21066;-62
2022/05/18 06:34:48;;;;;;;2.98;1.45;;;;;;;20.61;46.80;100740.47;1897808;75;21477;-62
2022/05/18 06:37:17;;;;;;;3.35;1.40;;;;;;;20.79;45.35;100733.61;1895572;75;21477;-62
2022/05/18 06:39:46;;;;;;;1.55;0.98;;;;;;;20.67;45.44;100721.73;1897900;75;21085;-62
2022/05/18 06:42:14;;;;;;;3.02;0.95;;;;;;;20.49;45.80;100744.09;1897876;75;21034;-62
2022/05/18 06:44:44;;;;;;;5.20;1.80;;;;;;;20.15;45.84;100740.12;1897890;75;21066;-61
2022/05/18 06:47:13;;;;;;;1.45;1.20;;;;;;;19.90;46.02;100721.16;1898030;75;21046;-62
2022/05/18 06:49:42;;;;;;;3.20;1.35;;;;;;;19.73;46.61;100741.19;1898005;75;21132;-62
2022/05/18 06:52:11;;;;;;;4.62;1.02;;;;;;;19.77;46.62;100741.30;1895665;75;21441;-61
2022/05/18 06:54:40;;;;;;;2.20;1.45;;;;;;;19.54;46.82;100737.72;1898028;75;21469;-61
2022/05/18 06:57:08;;;;;;;1.65;1.10;;;;;;;19.23;46.83;100720.88;1898007;75;21042;-62
2022/05/18 06:59:37;;;;;;;7.20;1.30;;;;;;;19.00;47.28;100728.45;1878880;75;21038;-62
2022/05/18 07:02:06;;;;;;;2.05;1.67;;;;;;;18.89;47.69;100727.41;1883508;75;21127;-61
2022/05/18 07:04:35;;;;;;;1.85;1.17;;;;;;;19.18;47.39;100717.72;1896601;75;21140;-61
2022/05/18 07:07:04;;;;;;;1.57;1.15;;;;;;;20.06;46.12;100715.81;1887617;75;21128;-60
2022/05/18 07:09:32;;;;;;;1.22;1.00;;;;;;;20.56;45.97;100714.05;1867948;75;21141;-60
2022/05/18 07:12:01;;;;;;;7.90;1.27;;;;;;;20.37;45.18;100723.22;1866019;77;21120;-61
2022/05/18 07:14:32;;;;;;;3.52;2.30;;;;;;;20.02;45.74;100725.55;1866011;77;21136;-61
2022/05/18 07:17:01;;;;;;;2.12;1.10;;;;;;;19.80;46.26;100717.88;1866029;77;21069;-61
2022/05/18 07:19:30;;;;;;;5.15;1.05;;;;;;;19.59;46.12;100720.87;1876880;75;21104;-60
2022/05/18 07:21:59;;;;;;;2.72;1.00;;;;;;;19.45;46.38;100700.55;1897984;75;21535;-60
2022/05/18 07:24:28;;;;;;;4.78;1.42;;;;;;;19.46;45.75;100709.78;1897993;75;21081;-60
2022/05/18 07:26:57;;;;;;;1.70;1.00;;;;;;;19.65;45.01;100725.23;1897995;75;21190;-61
2022/05/18 07:29:26;;;;;;;7.20;1.35;;;;;;;20.48;43.89;100721.02;1897946;75;21113;-60
2022/05/18 07:32:16;;;;;;;15.55;1.47;;;;;;;20.69;42.91;100723.78;1876480;74;21049;-62
2022/05/18 07:34:42;;;;;;;6.65;1.45;;;;;;;20.47;42.72;100720.64;1864756;77;21523;-62
2022/05/18 07:37:12;;;;;;;1.05;0.80;;;;;;;20.21;43.34;100716.91;1865938;77;21148;-61
2022/05/18 07:39:42;;;;;;;7.28;2.15;;;;;;;20.05;43.09;100727.49;1866157;77;21120;-59
2022/05/18 07:42:11;;;;;;;9.73;1.20;;;;;;;19.97;43.11;100733.91;1868191;75;21115;-59
2022/05/18 07:44:40;;;;;;;3.12;1.20;;;;;;;20.01;42.31;100731.84;1866284;77;21096;-60
2022/05/18 07:47:09;;;;;;;1.35;0.80;;;;;;;20.26;42.65;100726.75;1866284;77;21488;-61
2022/05/18 07:49:40;;;;;;;2.65;1.00;;;;;;;20.39;40.94;100727.45;1866048;77;21515;-61
2022/05/18 07:52:10;;;;;;;14.65;1.22;;;;;;;20.37;40.36;100725.39;1868265;75;21054;-62
2022/05/18 07:54:39;;;;;;;3.60;2.15;;;;;;;20.30;40.29;100726.02;1866113;77;21480;-62
2022/05/18 07:57:09;;;;;;;4.10;1.20;;;;;;;20.26;40.49;100742.79;1894469;75;21030;-61
2022/05/18 07:59:38;;;;;;;5.33;1.45;;;;;;;20.15;40.00;100745.47;1897963;75;21092;-61
2022/05/18 08:02:06;;;;;;;5.87;1.15;;;;;;;20.12;39.75;100739.89;1894868;75;21081;-63
2022/05/18 08:04:35;;;;;;;6.03;1.20;;;;;;;20.08;39.13;100713.52;1897951;75;21101;-62
2022/05/18 08:07:04;;;;;;;21.02;1.30;;;;;;;20.37;38.81;100720.05;1897969;75;21078;-65
2022/05/18 08:15:05;;;;;;;2.92;0.80;;;;;;;20.94;37.88;100726.64;1895688;75;21136;-60
2022/05/18 08:15:08;;;;;;;3.90;0.88;;;;;;;22.36;35.20;100735.01;1897800;75;21131;-62
2022/05/18 08:17:37;;;;;;;3.30;1.02;;;;;;;22.58;34.88;100720.19;1892377;75;21164;-62
2022/05/18 08:20:08;;;;;;;1.60;0.72;;;;;;;23.14;34.92;100742.36;1868153;75;21140;-61
2022/05/18 08:22:37;;;;;;;1.35;1.00;;;;;;;23.08;32.64;100723.64;1868261;75;21085;-60
2022/05/18 08:25:06;;;;;;;4.78;0.80;;;;;;;22.69;33.43;100723.58;1865959;77;21100;-62
2022/05/18 08:27:35;;;;;;;5.55;1.22;;;;;;;22.42;33.31;100718.86;1866006;77;21535;-62
2022/05/18 08:30:05;;;;;;;3.83;0.95;;;;;;;22.43;33.15;100719.70;1862742;76;21050;-62
2022/05/18 08:32:34;;;;;;;2.85;0.62;;;;;;;22.40;33.25;100707.42;1857107;77;21026;-61
2022/05/18 08:35:05;;;;;;;3.80;0.80;;;;;;;22.60;33.61;100720.89;1859004;76;21014;-62
2022/05/18 08:37:39;;;;;;;9.55;0.95;;;;;;;22.78;33.00;100707.61;1855891;77;21612;-63
2022/05/18 08:40:10;;;;;;;2.25;0.80;;;;;;;23.19;32.59;100715.09;1857082;77;21070;-62
2022/05/18 08:42:39;;;;;;;4.03;1.10;;;;;;;23.68;31.64;100719.87;1856987;77;21489;-62
2022/05/18 08:45:08;;;;;;;1.05;0.70;;;;;;;23.27;31.38;100691.04;1857076;77;21058;-62
2022/05/18 08:47:42;;;;;;;6.65;1.17;;;;;;;22.92;32.39;100713.92;1856983;77;21093;-62
2022/05/18 08:50:24;;;;;;;4.33;0.82;;;;;;;22.71;32.63;100699.30;1858203;76;21042;-63
2022/05/18 08:53:13;;;;;;;0.82;0.60;;;;;;;22.44;33.04;100699.95;1858488;76;21121;-61
2022/05/18 08:56:01;;;;;;;1.12;0.70;;;;;;;22.03;32.70;100704.45;1857025;77;21121;-62
2022/05/18 08:58:36;;;;;;;4.03;0.80;;;;;;;21.57;32.79;100701.27;1859016;76;22200;-63
2022/05/18 09:01:16;;;;;;;5.62;0.90;;;;;;;21.20;32.95;100687.80;1857023;77;21485;-62
2022/05/18 09:03:57;;;;;;;2.08;0.72;;;;;;;21.07;33.22;100684.97;1857171;77;21042;-62
2022/05/18 09:06:31;;;;;;;2.25;0.80;;;;;;;20.89;33.31;100695.38;1857021;77;21128;-62
2022/05/18 09:11:52;;;;;;;4.42;0.88;;;;;;;20.76;33.26;100675.48;1857245;77;21058;-61
2022/05/18 09:14:23;;;;;;;2.75;0.60;;;;;;;20.76;32.74;100649.57;1875042;76;21124;-62
2022/05/18 09:17:01;;;;;;;5.22;0.90;;;;;;;20.83;32.79;100646.74;1889037;76;21030;-62
2022/05/18 09:19:35;;;;;;;2.15;0.80;;;;;;;20.91;33.03;100644.75;1871930;76;21100;-62
2022/05/18 09:22:21;;;;;;;6.30;1.00;;;;;;;20.90;33.08;100650.27;1861686;76;21541;-61
2022/05/18 09:25:04;;;;;;;1.22;0.90;;;;;;;20.73;32.69;100634.26;1855930;77;21136;-61
2022/05/18 09:28:04;;;;;;;2.47;0.75;;;;;;;20.57;33.13;100650.72;1857004;77;21437;-63
2022/05/18 09:30:39;;;;;;;4.83;0.60;;;;;;;20.54;33.25;100646.95;1858080;76;21565;-61
2022/05/18 09:33:11;;;;;;;3.33;0.88;;;;;;;20.60;33.56;100639.75;1857039;77;21129;-62
2022/05/18 09:36:15;;;;;;;1.32;1.20;;;;;;;20.61;33.57;100638.32;1856410;77;21051;-62
2022/05/18 09:39:07;;;;;;;2.75;0.93;;;;;;;20.76;33.98;100629.50;1856981;77;21047;-62
2022/05/18 09:41:41;;;;;;;4.30;1.10;;;;;;;20.99;33.66;100648.98;1866040;76;21054;-62
2022/05/18 09:44:31;;;;;;;4.35;0.90;;;;;;;20.92;33.33;100640.28;1888465;76;21074;-61
2022/05/18 09:47:01;;;;;;;2.12;0.90;;;;;;;20.95;33.57;100627.95;1889005;74;21046;-62
2022/05/18 09:49:35;;;;;;;1.77;0.82;;;;;;;21.78;33.40;100612.31;1888879;76;21034;-62
2022/05/18 09:52:06;;;;;;;1.35;0.70;;;;;;;22.17;32.88;100629.00;1888913;76;21129;-60
2022/05/18 09:54:37;;;;;;;1.72;0.90;;;;;;;22.18;32.77;100632.86;1889018;76;21018;-61
2022/05/18 09:57:21;;;;;;;2.52;0.82;;;;;;;22.01;32.77;100623.31;1860195;76;21058;-60
2022/05/18 09:59:58;;;;;;;1.45;0.75;;;;;;;22.01;32.85;100624.16;1857038;77;21015;-60
2022/05/18 10:08:06;;;;;;;2.37;1.00;;;;;;;22.30;32.79;100620.23;1856955;77;21038;-60
2022/05/18 10:10:38;;;;;;;1.77;0.72;;;;;;;22.50;32.52;100600.11;1856955;77;21023;-60
2022/05/18 10:13:16;;;;;;;4.00;1.80;;;;;;;22.36;32.16;100585.30;1856969;77;21027;-59
2022/05/18 10:15:48;;;;;;;10.50;1.85;;;;;;;22.25;32.09;100603.67;1856841;77;21582;-60
2022/05/18 10:18:51;;;;;;;3.72;1.00;;;;;;;22.06;31.95;100603.16;1859075;76;21489;-60
2022/05/18 10:21:26;;;;;;;7.70;2.05;;;;;;;21.92;32.03;100624.98;1859303;76;21575;-60
2022/05/18 10:23:56;;;;;;;5.50;0.88;;;;;;;21.82;32.61;100600.83;1854010;77;21047;-62
2022/05/18 10:26:40;;;;;;;3.00;0.80;;;;;;;21.84;32.55;100598.86;1857064;77;21023;-59
2022/05/18 10:29:14;;;;;;;2.92;0.88;;;;;;;22.01;32.66;100604.55;1888458;76;21089;-59
2022/05/18 10:31:46;;;;;;;3.33;1.35;;;;;;;22.01;32.47;100577.24;1878671;75;21082;-60
2022/05/18 10:34:18;;;;;;;1.63;0.70;;;;;;;21.90;32.29;100599.64;1870967;77;21042;-62
2022/05/18 10:36:50;;;;;;;3.27;0.78;;;;;;;21.71;32.23;100599.09;1870469;76;21039;-60
2022/05/18 10:39:40;;;;;;;5.65;1.05;;;;;;;21.53;32.75;100604.23;1847094;77;21078;-59
2022/05/18 10:42:23;;;;;;;4.60;1.25;;;;;;;21.59;32.87;100602.84;1839326;77;21078;-60
2022/05/18 10:44:54;;;;;;;4.75;0.93;;;;;;;21.64;33.08;100597.94;1779776;78;21142;-60
2022/05/18 10:47:35;;;;;;;3.37;0.82;;;;;;;21.55;32.57;100555.38;1839306;78;21623;-59
2022/05/18 10:50:29;;;;;;;4.67;1.22;;;;;;;21.34;32.89;100566.13;1868136;77;21106;-59
2022/05/18 10:53:04;;;;;;;1.67;1.17;;;;;;;21.18;33.34;100589.37;1854616;77;21545;-60
2022/05/18 10:55:33;;;;;;;1.72;1.10;;;;;;;21.14;33.13;100601.33;1859547;76;21039;-60
2022/05/18 10:58:07;;;;;;;1.92;0.80;;;;;;;21.10;33.25;100613.28;1839295;78;21051;-59
2022/05/18 11:00:55;;;;;;;2.77;0.80;;;;;;;21.11;33.37;100603.42;1839089;78;21454;-61
2022/05/18 11:03:54;;;;;;;1.15;0.90;;;;;;;21.27;33.39;100612.33;1841274;77;21482;-61
2022/05/18 11:06:28;;;;;;;6.30;1.62;;;;;;;21.31;33.34;100604.38;1870510;76;21474;-61
2022/05/18 11:09:09;;;;;;;1.62;1.12;;;;;;;21.29;33.66;100608.52;1869609;76;21067;-62
2022/05/18 11:11:52;;;;;;;2.10;1.10;;;;;;;21.08;34.19;100605.88;1870663;76;21568;-61
2022/05/18 11:14:35;;;;;;;0.98;0.90;;;;;;;20.78;33.92;100604.80;1868336;76;21075;-61
2022/05/18 11:17:07;;;;;;;1.00;0.90;;;;;;;20.51;34.66;100624.00;1870740;77;21113;-62
2022/05/18 11:20:05;;;;;;;1.80;1.17;;;;;;;20.29;34.87;100657.00;1869834;76;21160;-62
2022/05/18 11:22:40;;;;;;;1.95;1.27;;;;;;;20.10;35.35;100604.66;1870531;77;21482;-62
2022/05/18 11:25:28;;;;;;;8.25;1.30;;;;;;;20.00;35.79;100614.75;1868219;77;21086;-61
2022/05/18 11:28:02;;;;;;;1.75;1.20;;;;;;;19.96;36.13;100577.73;1870591;76;21097;-61
2022/05/18 11:30:37;;;;;;;1.17;0.82;;;;;;;19.93;36.31;100615.38;1870287;76;21047;-62
2022/05/18 11:33:14;;;;;;;1.70;0.72;;;;;;;19.97;36.54;100610.98;1893032;75;21141;-61
2022/05/18 11:36:10;;;;;;;2.45;1.20;;;;;;;20.01;36.57;100593.75;1890618;75;21042;-62
2022/05/18 11:39:00;;;;;;;1.85;0.80;;;;;;;20.11;36.19;100609.87;1866086;77;21084;-61
2022/05/18 11:41:50;;;;;;;4.35;0.90;;;;;;;20.38;35.89;100597.42;1866144;77;21197;-61
2022/05/18 11:44:25;;;;;;;18.40;8.95;;;;;;;20.71;35.65;100617.02;1866167;77;21040;-61
2022/05/18 11:46:59;;;;;;;6.55;2.95;;;;;;;20.85;35.26;100597.61;1846442;77;21060;-61
2022/05/18 11:49:43;;;;;;;2.10;1.85;;;;;;;21.13;35.15;100602.80;1863447;77;21090;-63
2022/05/18 11:52:22;;;;;;;2.40;1.60;;;;;;;21.38;34.70;100593.50;1866167;77;21103;-61
2022/05/18 11:55:05;;;;;;;3.35;1.80;;;;;;;21.35;34.61;100608.48;1866104;77;21122;-61
2022/05/18 11:57:49;;;;;;;3.50;1.82;;;;;;;21.45;34.75;100576.41;1867954;75;21040;-61
2022/05/18 12:00:43;;;;;;;8.40;1.40;;;;;;;21.55;35.27;100582.67;1865931;77;21050;-61
2022/05/18 12:03:03;;;;;;;3.22;1.25;;;;;;;21.81;35.34;100588.91;1861603;77;21080;-60
2022/05/18 12:05:43;;;;;;;1.62;1.10;;;;;;;21.76;34.75;100577.23;1865410;77;21115;-61